createdAt,value
2018-04-29T00:01:51.866Z,11.17
2018-04-29T00:04:19.380Z,11.77
2018-04-29T00:06:46.892Z,11.27
2018-04-29T00:09:14.451Z,13.00
2018-04-29T00:11:41.970Z,11.87
2018-04-29T00:14:09.495Z,11.70
2018-04-29T00:16:37.041Z,12.63
2018-04-29T00:19:04.583Z,11.50
2018-04-29T00:21:32.129Z,11.83
2018-04-29T00:23:59.669Z,11.80
2018-04-29T00:26:27.171Z,11.83
2018-04-29T00:28:54.994Z,12.37
2018-04-29T00:31:22.557Z,11.90
2018-04-29T00:33:50.070Z,12.60
2018-04-29T00:36:17.602Z,11.70
2018-04-29T00:38:45.151Z,11.60
2018-04-29T00:41:12.669Z,11.40
2018-04-29T00:43:40.199Z,11.80
2018-04-29T00:46:07.760Z,11.97
2018-04-29T00:48:35.578Z,11.70
2018-04-29T00:51:03.109Z,11.60
2018-04-29T00:53:30.650Z,11.63
2018-04-29T00:55:58.175Z,12.20
2018-04-29T00:58:25.705Z,11.63
2018-04-29T01:00:53.273Z,12.03
2018-04-29T01:03:20.784Z,12.43
2018-04-29T01:05:48.290Z,13.00
2018-04-29T01:08:15.826Z,12.60
2018-04-29T01:10:43.367Z,12.33
2018-04-29T01:13:10.905Z,12.70
2018-04-29T01:15:38.536Z,13.10
2018-04-29T01:18:06.054Z,12.03
2018-04-29T01:20:33.587Z,11.93
2018-04-29T01:23:01.125Z,11.40
2018-04-29T01:25:28.643Z,11.90
2018-04-29T01:27:56.184Z,12.43
2018-04-29T01:30:23.687Z,12.43
2018-04-29T01:32:51.279Z,13.20
2018-04-29T01:35:18.807Z,12.47
2018-04-29T01:37:46.332Z,12.17
2018-04-29T01:40:13.894Z,12.03
2018-04-29T01:42:41.386Z,12.30
2018-04-29T01:45:08.930Z,12.00
2018-04-29T01:47:36.440Z,12.67
2018-04-29T01:50:03.969Z,11.40
2018-04-29T01:52:31.518Z,12.50
2018-04-29T01:54:59.023Z,12.37
2018-04-29T01:57:26.559Z,12.80
2018-04-29T01:59:54.069Z,12.57
2018-04-29T02:02:21.592Z,12.83
2018-04-29T02:04:49.131Z,12.60
2018-04-29T02:07:16.665Z,12.73
2018-04-29T02:09:44.204Z,11.73
2018-04-29T02:12:11.797Z,12.93
2018-04-29T02:14:39.343Z,13.33
2018-04-29T02:17:06.874Z,13.50
2018-04-29T02:19:34.380Z,13.00
2018-04-29T02:22:01.933Z,13.03
2018-04-29T02:24:29.450Z,12.67
2018-04-29T02:26:57.018Z,12.70
2018-04-29T02:29:24.620Z,12.90
2018-04-29T02:31:52.141Z,13.30
2018-04-29T02:34:19.698Z,12.97
2018-04-29T02:36:47.216Z,12.73
2018-04-29T02:39:14.740Z,13.40
2018-04-29T02:41:42.339Z,12.87
2018-04-29T02:44:10.114Z,13.20
2018-04-29T02:46:37.671Z,13.20
2018-04-29T02:49:05.197Z,13.10
2018-04-29T02:51:32.819Z,13.47
2018-04-29T02:54:00.414Z,13.20
2018-04-29T02:56:27.930Z,12.90
2018-04-29T02:58:55.470Z,13.30
2018-04-29T03:01:22.984Z,12.40
2018-04-29T03:03:50.538Z,12.63
2018-04-29T03:06:18.114Z,12.87
2018-04-29T03:08:45.613Z,13.27
2018-04-29T03:11:13.593Z,12.37
2018-04-29T03:13:41.132Z,13.50
2018-04-29T03:16:08.654Z,13.17
2018-04-29T03:18:36.197Z,12.60
2018-04-29T03:21:03.705Z,12.77
2018-04-29T03:23:31.244Z,12.53
2018-04-29T03:25:58.761Z,13.20
2018-04-29T03:28:26.354Z,12.20
2018-04-29T03:30:53.930Z,12.80
2018-04-29T03:33:21.429Z,12.30
2018-04-29T03:35:48.966Z,12.83
2018-04-29T03:38:16.510Z,13.27
2018-04-29T03:40:44.052Z,12.60
2018-04-29T03:43:11.579Z,12.87
2018-04-29T03:45:39.098Z,12.73
2018-04-29T03:48:06.649Z,13.67
2018-04-29T03:50:34.255Z,13.10
2018-04-29T03:53:02.022Z,12.47
2018-04-29T03:55:29.548Z,12.20
2018-04-29T03:58:08.952Z,12.93
2018-04-29T04:00:51.250Z,12.93
2018-04-29T04:03:30.523Z,13.70
2018-04-29T04:05:58.091Z,13.40
2018-04-29T04:08:25.647Z,12.80
2018-04-29T04:10:53.172Z,13.70
2018-04-29T04:13:20.673Z,13.20
2018-04-29T04:15:48.272Z,13.60
2018-04-29T04:18:15.793Z,13.77
2018-04-29T04:20:43.340Z,12.83
2018-04-29T04:23:10.889Z,13.43
2018-04-29T04:25:38.410Z,13.63
2018-04-29T04:28:06.271Z,13.67
2018-04-29T04:30:33.767Z,13.67
2018-04-29T04:33:01.320Z,13.53
2018-04-29T04:35:28.956Z,13.60
2018-04-29T04:37:56.446Z,13.60
2018-04-29T04:40:24.000Z,14.13
2018-04-29T04:42:51.528Z,13.57
2018-04-29T04:45:19.083Z,13.20
2018-04-29T04:47:46.621Z,14.70
2018-04-29T04:50:14.209Z,13.10
2018-04-29T04:52:41.781Z,14.37
2018-04-29T04:55:09.313Z,13.50
2018-04-29T04:57:36.861Z,13.87
2018-04-29T05:00:04.384Z,14.23
2018-04-29T05:02:31.915Z,13.67
2018-04-29T05:04:59.451Z,14.60
2018-04-29T05:07:27.030Z,13.57
2018-04-29T05:09:54.614Z,14.00
2018-04-29T05:12:22.210Z,14.50
2018-04-29T05:14:49.733Z,15.20
2018-04-29T05:17:17.245Z,14.70
2018-04-29T05:19:45.047Z,14.13
2018-04-29T05:22:12.576Z,14.40
2018-04-29T05:24:40.118Z,14.40
2018-04-29T05:27:07.654Z,14.57
2018-04-29T05:29:35.390Z,14.80
2018-04-29T05:32:03.265Z,14.03
2018-04-29T05:34:30.794Z,14.27
2018-04-29T05:36:58.319Z,14.97
2018-04-29T05:39:25.864Z,15.37
2018-04-29T05:41:53.412Z,14.57
2018-04-29T05:44:20.946Z,14.40
2018-04-29T05:46:48.489Z,15.87
2018-04-29T05:49:16.009Z,14.50
2018-04-29T05:51:43.538Z,13.90
2018-04-29T05:54:11.067Z,14.53
2018-04-29T05:56:38.578Z,14.70
2018-04-29T05:59:06.121Z,14.00
2018-04-29T06:01:34.500Z,15.07
2018-04-29T06:04:02.090Z,15.00
2018-04-29T06:06:29.634Z,14.53
2018-04-29T06:08:57.123Z,14.30
2018-04-29T06:11:24.644Z,14.87
2018-04-29T06:13:52.169Z,13.83
2018-04-29T06:16:19.707Z,14.10
2018-04-29T06:18:47.209Z,14.70
2018-04-29T06:21:14.724Z,15.00
2018-04-29T06:23:42.564Z,13.57
2018-04-29T06:26:10.164Z,14.00
2018-04-29T06:28:37.873Z,13.87
2018-04-29T06:31:05.647Z,13.67
2018-04-29T06:33:33.161Z,14.03
2018-04-29T06:36:00.699Z,13.30
2018-04-29T06:38:28.468Z,14.33
2018-04-29T06:40:56.034Z,13.23
2018-04-29T06:43:23.609Z,13.50
2018-04-29T06:45:51.116Z,13.57
2018-04-29T06:48:18.652Z,13.50
2018-04-29T06:50:46.175Z,12.10
2018-04-29T06:53:13.733Z,13.00
2018-04-29T06:55:41.237Z,13.17
2018-04-29T06:58:08.746Z,12.40
2018-04-29T07:00:36.274Z,11.67
2018-04-29T07:03:03.796Z,11.73
2018-04-29T07:05:31.695Z,11.53
2018-04-29T07:07:59.202Z,10.87
2018-04-29T07:10:27.129Z,12.37
2018-04-29T07:12:54.701Z,10.90
2018-04-29T07:15:22.279Z,11.23
2018-04-29T07:17:49.821Z,11.30
2018-04-29T07:20:17.341Z,11.27
2018-04-29T07:22:44.911Z,10.57
2018-04-29T07:25:12.434Z,11.23
2018-04-29T07:27:39.956Z,12.33
2018-04-29T07:30:07.487Z,13.13
2018-04-29T07:32:35.018Z,11.47
2018-04-29T07:35:02.568Z,11.00
2018-04-29T07:37:30.401Z,10.90
2018-04-29T07:39:58.015Z,10.70
2018-04-29T07:42:25.468Z,10.97
2018-04-29T07:44:53.034Z,10.73
2018-04-29T07:47:20.568Z,11.40
2018-04-29T07:49:48.086Z,11.30
2018-04-29T07:52:15.724Z,10.30
2018-04-29T07:54:43.209Z,10.27
2018-04-29T07:57:10.750Z,10.10
2018-04-29T07:59:38.318Z,10.53
2018-04-29T08:02:05.836Z,11.00
2018-04-29T08:04:33.364Z,10.70
2018-04-29T08:07:00.905Z,11.80
2018-04-29T08:09:28.565Z,30.50
2018-04-29T08:11:56.099Z,11.27
2018-04-29T08:14:23.656Z,10.40
2018-04-29T08:16:51.202Z,10.20
2018-04-29T08:19:18.720Z,10.47
2018-04-29T08:21:46.284Z,10.53
2018-04-29T08:24:13.801Z,10.27
2018-04-29T08:26:41.366Z,10.83
2018-04-29T08:29:08.880Z,10.20
2018-04-29T08:31:36.413Z,10.40
2018-04-29T08:34:03.946Z,10.90
2018-04-29T08:36:31.704Z,10.10
2018-04-29T08:38:59.264Z,10.83
2018-04-29T08:41:26.826Z,11.63
2018-04-29T08:43:54.406Z,10.10
2018-04-29T08:46:21.935Z,10.03
2018-04-29T08:48:49.471Z,10.37
2018-04-29T08:51:17.028Z,10.20
2018-04-29T08:53:44.565Z,9.77
2018-04-29T08:56:12.121Z,10.40
2018-04-29T08:58:39.724Z,9.63
2018-04-29T09:01:07.303Z,10.23
2018-04-29T09:03:34.920Z,9.83
2018-04-29T09:06:02.584Z,10.03
2018-04-29T09:08:30.217Z,10.30
2018-04-29T09:10:57.772Z,10.00
2018-04-29T09:13:25.337Z,9.80
2018-04-29T09:15:52.854Z,10.13
2018-04-29T09:18:20.412Z,9.87
2018-04-29T09:20:47.965Z,18.30
2018-04-29T09:23:15.550Z,9.40
2018-04-29T09:25:43.095Z,9.77
2018-04-29T09:28:10.622Z,9.30
2018-04-29T09:30:38.192Z,9.57
2018-04-29T09:33:05.704Z,9.60
2018-04-29T09:35:33.273Z,9.23
2018-04-29T09:38:00.790Z,9.40
2018-04-29T09:40:28.323Z,12.10
2018-04-29T09:42:55.862Z,9.60
2018-04-29T09:45:23.362Z,9.60
2018-04-29T09:47:51.215Z,9.57
2018-04-29T09:50:19.082Z,10.00
2018-04-29T09:52:46.620Z,9.67
2018-04-29T09:55:14.176Z,10.07
2018-04-29T09:57:41.717Z,10.50
2018-04-29T10:00:09.318Z,10.13
2018-04-29T10:02:37.207Z,10.30
2018-04-29T10:05:04.732Z,11.13
2018-04-29T10:07:32.258Z,10.43
2018-04-29T10:09:59.777Z,9.97
2018-04-29T10:12:27.302Z,10.33
2018-04-29T10:14:54.823Z,10.47
2018-04-29T10:17:22.414Z,9.60
2018-04-29T10:19:49.942Z,10.50
2018-04-29T10:22:17.491Z,10.30
2018-04-29T10:24:45.105Z,9.97
2018-04-29T10:27:12.558Z,9.70
2018-04-29T10:29:40.096Z,12.87
2018-04-29T10:32:07.600Z,10.93
2018-04-29T10:34:35.385Z,9.87
2018-04-29T10:37:03.267Z,9.10
2018-04-29T10:39:30.795Z,10.00
2018-04-29T10:41:58.694Z,9.07
2018-04-29T10:44:26.199Z,9.53
2018-04-29T10:46:53.814Z,9.90
2018-04-29T10:49:21.340Z,9.70
2018-04-29T10:51:48.892Z,10.33
2018-04-29T10:54:16.687Z,9.87
2018-04-29T10:56:44.235Z,10.07
2018-04-29T10:59:11.747Z,9.93
2018-04-29T11:01:39.268Z,9.50
2018-04-29T11:04:07.141Z,9.97
2018-04-29T11:06:34.670Z,9.53
2018-04-29T11:09:02.571Z,10.63
2018-04-29T11:11:30.130Z,10.10
2018-04-29T11:13:57.654Z,9.30
2018-04-29T11:16:25.259Z,9.33
2018-04-29T11:18:52.831Z,9.80
2018-04-29T11:21:20.369Z,9.13
2018-04-29T11:23:47.959Z,9.50
2018-04-29T11:26:15.639Z,9.60
2018-04-29T11:28:43.375Z,10.47
2018-04-29T11:31:11.340Z,9.50
2018-04-29T11:33:38.885Z,9.67
2018-04-29T11:36:06.402Z,9.83
2018-04-29T11:38:33.939Z,10.30
2018-04-29T11:41:01.444Z,9.60
2018-04-29T11:43:29.235Z,9.93
2018-04-29T11:45:56.819Z,10.07
2018-04-29T11:48:24.686Z,9.60
2018-04-29T11:50:52.209Z,9.97
2018-04-29T11:53:19.723Z,9.90
2018-04-29T11:55:47.249Z,9.83
2018-04-29T11:58:14.835Z,9.73
2018-04-29T12:00:42.334Z,9.30
2018-04-29T12:03:09.881Z,9.40
2018-04-29T12:05:37.457Z,8.90
2018-04-29T12:08:04.982Z,8.97
2018-04-29T12:10:33.524Z,9.00
2018-04-29T12:13:01.027Z,8.75
2018-04-29T12:15:28.664Z,8.60
2018-04-29T12:17:56.190Z,9.10
2018-04-29T12:20:23.702Z,8.80
2018-04-29T12:22:51.285Z,8.88
2018-04-29T12:25:18.813Z,8.80
2018-04-29T12:27:46.416Z,8.85
2018-04-29T12:30:15.286Z,8.70
2018-04-29T12:32:42.835Z,8.57
2018-04-29T12:35:10.365Z,8.18
2018-04-29T12:37:37.887Z,9.15
2018-04-29T12:40:05.467Z,9.00
2018-04-29T12:42:32.975Z,8.80
2018-04-29T12:45:00.509Z,8.82
2018-04-29T12:47:28.055Z,8.68
2018-04-29T12:49:55.584Z,8.70
2018-04-29T12:52:23.211Z,8.75
2018-04-29T12:54:50.719Z,8.20
2018-04-29T12:57:18.445Z,7.95
2018-04-29T12:59:45.965Z,8.63
2018-04-29T13:02:13.468Z,8.77
2018-04-29T13:04:41.021Z,8.27
2018-04-29T13:07:08.527Z,8.40
2018-04-29T13:09:36.053Z,8.27
2018-04-29T13:12:03.596Z,7.75
2018-04-29T13:14:31.136Z,8.75
2018-04-29T13:16:58.997Z,8.25
2018-04-29T13:19:26.504Z,8.60
2018-04-29T13:21:54.104Z,8.55
2018-04-29T13:24:21.592Z,8.30
2018-04-29T13:26:49.101Z,8.60
2018-04-29T13:29:16.651Z,8.80
2018-04-29T13:31:44.166Z,8.30
2018-04-29T13:34:11.774Z,8.52
2018-04-29T13:36:39.426Z,8.40
2018-04-29T13:39:07.056Z,8.00
2018-04-29T13:41:34.624Z,8.50
2018-04-29T13:44:02.235Z,8.55
2018-04-29T13:46:29.723Z,8.48
2018-04-29T13:48:57.249Z,8.52
2018-04-29T13:51:24.811Z,8.63
2018-04-29T13:53:52.379Z,9.45
2018-04-29T13:56:19.906Z,9.00
2018-04-29T13:58:47.705Z,8.93
2018-04-29T14:01:15.352Z,9.17
2018-04-29T14:06:16.679Z,9.93
2018-04-29T14:08:44.209Z,9.60
2018-04-29T14:11:11.772Z,9.30
2018-04-29T14:13:39.313Z,9.80
2018-04-29T14:16:06.921Z,9.20
2018-04-29T14:18:34.416Z,9.50
2018-04-29T14:21:02.246Z,9.90
2018-04-29T14:23:29.795Z,9.10
2018-04-29T14:25:57.355Z,9.73
2018-04-29T14:28:24.850Z,9.20
2018-04-29T14:30:52.653Z,9.90
2018-04-29T14:33:20.169Z,10.30
2018-04-29T14:35:47.710Z,9.60
2018-04-29T14:38:15.262Z,9.53
2018-04-29T14:40:42.806Z,9.90
2018-04-29T14:43:10.350Z,9.43
2018-04-29T14:45:37.883Z,9.37
2018-04-29T14:48:05.439Z,9.40
2018-04-29T14:50:32.960Z,8.90
2018-04-29T14:53:00.508Z,9.00
2018-04-29T14:55:28.086Z,9.00
2018-04-29T14:57:55.602Z,10.07
2018-04-29T15:00:23.158Z,9.40
2018-04-29T15:02:50.762Z,9.87
2018-04-29T15:05:18.852Z,10.30
2018-04-29T15:07:46.636Z,9.60
2018-04-29T15:10:14.467Z,9.50
2018-04-29T15:12:42.044Z,10.37
2018-04-29T15:15:09.550Z,11.07
2018-04-29T15:17:37.070Z,9.83
2018-04-29T15:20:04.790Z,10.20
2018-04-29T15:22:32.318Z,9.70
2018-04-29T15:25:00.140Z,9.80
2018-04-29T15:27:27.727Z,9.80
2018-04-29T15:29:55.176Z,10.33
2018-04-29T15:32:22.751Z,10.50
2018-04-29T15:34:50.271Z,10.13
2018-04-29T15:37:17.814Z,10.30
2018-04-29T15:39:45.392Z,10.27
2018-04-29T15:42:13.003Z,10.23
2018-04-29T15:44:40.522Z,9.83
2018-04-29T15:47:08.050Z,10.13
2018-04-29T15:49:35.589Z,9.70
2018-04-29T15:52:03.111Z,10.50
2018-04-29T15:54:30.951Z,10.70
2018-04-29T15:56:58.755Z,9.90
2018-04-29T15:59:26.517Z,9.40
2018-04-29T16:01:54.064Z,10.40
2018-04-29T16:04:21.827Z,9.90
2018-04-29T16:06:49.471Z,10.20
2018-04-29T16:09:17.203Z,9.37
2018-04-29T16:11:44.837Z,9.80
2018-04-29T16:14:12.403Z,9.90
2018-04-29T16:16:40.526Z,10.77
2018-04-29T16:19:08.089Z,10.47
2018-04-29T16:21:35.829Z,10.80
2018-04-29T16:24:03.402Z,10.60
2018-04-29T16:26:30.962Z,9.80
2018-04-29T16:28:58.547Z,10.20
2018-04-29T16:31:26.083Z,10.03
2018-04-29T16:33:56.754Z,9.93
2018-04-29T16:36:24.479Z,9.97
2018-04-29T16:38:52.043Z,10.33
2018-04-29T16:41:19.797Z,10.60
2018-04-29T16:43:47.305Z,10.80
2018-04-29T16:46:14.836Z,10.93
2018-04-29T16:48:42.365Z,11.10
2018-04-29T16:51:09.899Z,10.63
2018-04-29T16:53:37.451Z,10.37
2018-04-29T16:56:04.975Z,10.80
2018-04-29T16:58:32.597Z,11.80
2018-04-29T17:01:00.116Z,11.10
2018-04-29T17:03:27.722Z,10.53
2018-04-29T17:05:55.256Z,10.60
2018-04-29T17:08:22.780Z,10.30
2018-04-29T17:10:50.579Z,10.80
2018-04-29T17:13:18.116Z,11.20
2018-04-29T17:15:45.902Z,11.37
2018-04-29T17:18:13.450Z,10.80
2018-04-29T17:20:41.036Z,10.80
2018-04-29T17:23:08.533Z,11.30
2018-04-29T17:25:36.070Z,10.80
2018-04-29T17:28:03.631Z,10.90
2018-04-29T17:30:31.169Z,10.37
2018-04-29T17:32:58.754Z,10.70
2018-04-29T17:35:26.401Z,11.23
2018-04-29T17:37:54.017Z,10.93
2018-04-29T17:40:21.906Z,10.00
2018-04-29T17:42:49.508Z,10.70
2018-04-29T17:45:17.030Z,10.87
2018-04-29T17:47:44.588Z,11.00
2018-04-29T17:50:12.105Z,10.90
2018-04-29T17:52:39.634Z,10.43
2018-04-29T17:55:07.198Z,10.73
2018-04-29T17:57:34.708Z,11.60
2018-04-29T18:00:02.235Z,11.37
2018-04-29T18:02:29.811Z,10.43
2018-04-29T18:04:57.383Z,10.70
2018-04-29T18:07:24.919Z,10.67
2018-04-29T18:09:52.470Z,11.30
2018-04-29T18:12:20.097Z,11.00
2018-04-29T18:14:47.774Z,10.63
2018-04-29T18:17:15.512Z,11.30
2018-04-29T18:19:43.067Z,11.07
2018-04-29T18:22:10.593Z,11.30
2018-04-29T18:24:38.127Z,11.70
2018-04-29T18:27:05.988Z,11.30
2018-04-29T18:29:33.498Z,11.10
2018-04-29T18:32:01.093Z,11.40
2018-04-29T18:34:28.615Z,11.23
2018-04-29T18:36:56.542Z,10.93
2018-04-29T18:39:24.056Z,10.87
2018-04-29T18:41:51.612Z,11.17
2018-04-29T18:44:19.420Z,10.90
2018-04-29T18:46:47.287Z,11.87
2018-04-29T18:49:14.859Z,11.23
2018-04-29T18:51:42.484Z,11.60
2018-04-29T18:54:10.015Z,10.97
2018-04-29T18:56:37.530Z,11.57
2018-04-29T18:59:05.985Z,12.90
2018-04-29T19:01:33.535Z,13.47
2018-04-29T19:04:01.055Z,12.10
2018-04-29T19:06:28.575Z,11.27
2018-04-29T19:08:56.092Z,11.07
2018-04-29T19:11:23.617Z,11.20
2018-04-29T19:13:51.125Z,11.10
2018-04-29T19:16:18.721Z,10.87
2018-04-29T19:18:46.278Z,11.20
2018-04-29T19:21:13.815Z,11.13
2018-04-29T19:23:41.436Z,11.00
2018-04-29T19:26:09.004Z,11.07
2018-04-29T19:28:36.852Z,10.60
2018-04-29T19:31:04.463Z,11.40
2018-04-29T19:33:32.012Z,11.07
2018-04-29T19:35:59.549Z,11.00
2018-04-29T19:38:27.164Z,11.67
2018-04-29T19:40:54.666Z,10.93
2018-04-29T19:43:22.225Z,10.93
2018-04-29T19:45:49.752Z,11.20
2018-04-29T19:48:17.301Z,11.43
2018-04-29T19:50:44.917Z,12.00
2018-04-29T19:53:12.444Z,10.70
2018-04-29T19:55:40.192Z,10.83
2018-04-29T19:58:07.757Z,11.00
2018-04-29T20:00:35.280Z,10.50
2018-04-29T20:03:02.870Z,10.80
2018-04-29T20:05:30.396Z,10.43
2018-04-29T20:07:58.224Z,11.17
2018-04-29T20:10:25.762Z,11.50
2018-04-29T20:12:53.296Z,11.47
2018-04-29T20:15:20.829Z,10.90
2018-04-29T20:17:48.349Z,10.70
2018-04-29T20:20:15.862Z,11.27
2018-04-29T20:22:43.374Z,11.27
2018-04-29T20:25:11.713Z,10.40
2018-04-29T20:27:39.222Z,11.80
2018-04-29T20:30:06.780Z,12.13
2018-04-29T20:32:56.706Z,10.97
2018-04-29T20:35:24.317Z,11.20
2018-04-29T20:37:51.870Z,11.93
2018-04-29T20:40:19.444Z,10.63
2018-04-29T20:42:47.514Z,11.97
2018-04-29T20:45:15.106Z,11.17
2018-04-29T20:47:42.659Z,11.53
2018-04-29T20:50:10.190Z,23.67
2018-04-29T20:52:37.712Z,28.63
2018-04-29T20:55:05.284Z,11.43
2018-04-29T20:57:33.054Z,10.63
2018-04-29T21:00:01.384Z,10.60
2018-04-29T21:02:28.915Z,11.50
2018-04-29T21:04:56.436Z,11.47
2018-04-29T21:07:24.008Z,11.57
2018-04-29T21:09:51.526Z,12.73
2018-04-29T21:12:19.736Z,11.60
2018-04-29T21:14:47.277Z,10.80
2018-04-29T21:17:14.801Z,11.53
2018-04-29T21:19:42.368Z,11.10
2018-04-29T21:22:09.882Z,11.63
2018-04-29T21:24:37.396Z,11.63
2018-04-29T21:27:04.940Z,11.13
2018-04-29T21:29:32.459Z,11.80
2018-04-29T21:31:59.991Z,11.37
2018-04-29T21:34:27.530Z,11.00
2018-04-29T21:36:55.076Z,11.30
2018-04-29T21:39:22.652Z,12.00
2018-04-29T21:41:50.201Z,11.80
2018-04-29T21:44:17.736Z,11.40
2018-04-29T21:46:45.241Z,11.97
2018-04-29T21:49:12.795Z,11.60
2018-04-29T21:51:40.348Z,11.63
2018-04-29T21:54:07.899Z,11.50
2018-04-29T21:56:35.414Z,11.83
2018-04-29T21:59:02.913Z,11.70
2018-04-29T22:01:30.476Z,12.30
2018-04-29T22:03:58.015Z,12.20
2018-04-29T22:06:25.574Z,11.97
2018-04-29T22:08:53.085Z,11.60
2018-04-29T22:11:20.681Z,11.67
2018-04-29T22:13:48.204Z,12.10
2018-04-29T22:16:15.737Z,11.40
2018-04-29T22:18:43.286Z,11.80
2018-04-29T22:21:10.862Z,11.40
2018-04-29T22:23:38.618Z,12.07
2018-04-29T22:26:06.310Z,11.57
2018-04-29T22:28:33.835Z,12.83
2018-04-29T22:31:01.392Z,16.13
2018-04-29T22:33:28.919Z,15.10
2018-04-29T22:35:56.445Z,11.83
2018-04-29T22:38:23.974Z,12.70
2018-04-29T22:40:51.564Z,11.77
2018-04-29T22:43:19.106Z,12.33
2018-04-29T22:45:46.619Z,11.80
2018-04-29T22:48:14.451Z,11.80
2018-04-29T22:50:41.996Z,11.97
2018-04-29T22:53:09.532Z,12.03
2018-04-29T22:55:37.093Z,12.77
2018-04-29T22:58:04.637Z,13.37
2018-04-29T23:00:32.140Z,12.23
2018-04-29T23:02:59.919Z,11.83
2018-04-29T23:05:27.453Z,12.30
2018-04-29T23:07:55.244Z,12.40
2018-04-29T23:10:22.756Z,12.33
2018-04-29T23:12:50.255Z,12.53
2018-04-29T23:15:17.806Z,12.07
2018-04-29T23:17:45.381Z,13.00
2018-04-29T23:20:12.918Z,12.00
2018-04-29T23:22:40.422Z,12.93
2018-04-29T23:25:07.930Z,12.80
2018-04-29T23:27:35.466Z,12.90
2018-04-29T23:30:03.011Z,12.90
2018-04-29T23:32:30.550Z,12.90
2018-04-29T23:34:58.077Z,13.17
2018-04-29T23:37:25.690Z,13.17
2018-04-29T23:39:53.222Z,13.30
2018-04-29T23:42:20.737Z,13.47
2018-04-29T23:44:48.658Z,13.00
2018-04-29T23:47:16.157Z,12.70
2018-04-29T23:49:43.703Z,13.87
2018-04-29T23:52:11.203Z,13.80
2018-04-29T23:54:38.692Z,13.00
2018-04-29T23:57:06.226Z,12.87
2018-04-29T23:59:34.029Z,12.57
